sensor_id;sensor_type;location;lat;lon;timestamp;pressure;altitude;pressure_sealevel;temperature;humidity
22481;BME280;11407;56.964;-2.212;2022-09-09T00:02:01;100857.53;;;25.64;52.08
22481;BME280;11407;56.964;-2.212;2022-09-09T00:07:21;100858.09;;;25.98;51.36
22481;BME280;11407;56.964;-2.212;2022-09-09T00:09:57;100849.41;;;25.96;51.27
22481;BME280;11407;56.964;-2.212;2022-09-09T00:12:39;100854.59;;;25.91;51.26
22481;BME280;11407;56.964;-2.212;2022-09-09T00:15:12;100857.34;;;25.53;52.45
22481;BME280;11407;56.964;-2.212;2022-09-09T00:17:45;100859.63;;;25.56;51.82
22481;BME280;11407;56.964;-2.212;2022-09-09T00:20:16;100859.84;;;25.60;52.13
22481;BME280;11407;56.964;-2.212;2022-09-09T00:23:10;100856.28;;;25.60;51.93
22481;BME280;11407;56.964;-2.212;2022-09-09T00:25:42;100865.66;;;25.45;52.17
22481;BME280;11407;56.964;-2.212;2022-09-09T00:28:18;100868.75;;;25.42;52.07
22481;BME280;11407;56.964;-2.212;2022-09-09T00:30:45;100867.31;;;25.52;51.82
22481;BME280;11407;56.964;-2.212;2022-09-09T00:33:16;100860.66;;;25.48;52.33
22481;BME280;11407;56.964;-2.212;2022-09-09T00:36:01;100868.34;;;25.58;51.67
22481;BME280;11407;56.964;-2.212;2022-09-09T00:38:46;100867.09;;;25.60;51.62
22481;BME280;11407;56.964;-2.212;2022-09-09T00:44:44;100864.38;;;25.60;52.02
22481;BME280;11407;56.964;-2.212;2022-09-09T00:46:48;100857.13;;;25.60;51.56
22481;BME280;11407;56.964;-2.212;2022-09-09T00:52:31;100858.16;;;25.66;51.87
22481;BME280;11407;56.964;-2.212;2022-09-09T00:57:37;100872.47;;;25.66;52.20
22481;BME280;11407;56.964;-2.212;2022-09-09T01:00:22;100872.50;;;25.60;51.78
22481;BME280;11407;56.964;-2.212;2022-09-09T01:03:02;100871.25;;;25.62;52.32
22481;BME280;11407;56.964;-2.212;2022-09-09T01:08:23;100869.78;;;25.41;52.25
22481;BME280;11407;56.964;-2.212;2022-09-09T01:10:54;100870.63;;;25.54;52.10
22481;BME280;11407;56.964;-2.212;2022-09-09T01:13:29;100884.53;;;25.45;51.73
22481;BME280;11407;56.964;-2.212;2022-09-09T01:15:57;100867.09;;;25.47;51.74
22481;BME280;11407;56.964;-2.212;2022-09-09T01:18:27;100864.59;;;25.58;52.04
22481;BME280;11407;56.964;-2.212;2022-09-09T01:28:57;100875.63;;;25.44;51.75
22481;BME280;11407;56.964;-2.212;2022-09-09T01:31:36;100878.94;;;25.20;52.07
22481;BME280;11407;56.964;-2.212;2022-09-09T01:34:02;100899.91;;;25.31;52.73
22481;BME280;11407;56.964;-2.212;2022-09-09T01:36:40;100878.34;;;25.31;52.62
22481;BME280;11407;56.964;-2.212;2022-09-09T01:39:08;100888.72;;;25.34;52.14
22481;BME280;11407;56.964;-2.212;2022-09-09T01:41:33;100904.47;;;25.31;52.22
22481;BME280;11407;56.964;-2.212;2022-09-09T01:43:59;100900.72;;;25.25;52.33
22481;BME280;11407;56.964;-2.212;2022-09-09T01:46:25;100892.47;;;25.40;51.82
22481;BME280;11407;56.964;-2.212;2022-09-09T01:48:52;100891.19;;;25.42;52.07
22481;BME280;11407;56.964;-2.212;2022-09-09T01:51:18;100878.09;;;25.26;51.98
22481;BME280;11407;56.964;-2.212;2022-09-09T01:53:45;100887.25;;;25.25;52.80
22481;BME280;11407;56.964;-2.212;2022-09-09T02:01:42;100892.22;;;25.22;52.54
22481;BME280;11407;56.964;-2.212;2022-09-09T02:06:59;100895.34;;;25.38;52.40
22481;BME280;11407;56.964;-2.212;2022-09-09T02:09:26;100889.53;;;25.35;52.50
22481;BME280;11407;56.964;-2.212;2022-09-09T02:12:05;100896.19;;;25.39;52.37
22481;BME280;11407;56.964;-2.212;2022-09-09T02:14:36;100885.41;;;25.39;52.37
22481;BME280;11407;56.964;-2.212;2022-09-09T02:17:13;100886.84;;;25.35;52.32
22481;BME280;11407;56.964;-2.212;2022-09-09T02:19:46;100911.09;;;25.15;52.68
22481;BME280;11407;56.964;-2.212;2022-09-09T02:22:16;100895.78;;;25.22;52.93
22481;BME280;11407;56.964;-2.212;2022-09-09T02:24:43;100895.78;;;25.22;52.52
22481;BME280;11407;56.964;-2.212;2022-09-09T02:27:12;100904.88;;;25.15;53.15
22481;BME280;11407;56.964;-2.212;2022-09-09T02:29:41;100899.28;;;25.23;52.79
22481;BME280;11407;56.964;-2.212;2022-09-09T02:32:12;100905.72;;;25.35;52.55
22481;BME280;11407;56.964;-2.212;2022-09-09T02:34:43;100907.19;;;25.37;52.43
22481;BME280;11407;56.964;-2.212;2022-09-09T02:37:11;100908.84;;;25.45;52.13
22481;BME280;11407;56.964;-2.212;2022-09-09T02:39:37;100915.69;;;25.28;52.38
22481;BME280;11407;56.964;-2.212;2022-09-09T02:42:04;100906.75;;;25.34;52.43
22481;BME280;11407;56.964;-2.212;2022-09-09T02:44:30;100904.47;;;25.50;52.25
22481;BME280;11407;56.964;-2.212;2022-09-09T02:49:44;100924.00;;;25.46;52.39
22481;BME280;11407;56.964;-2.212;2022-09-09T02:52:18;100906.16;;;25.45;51.60
22481;BME280;11407;56.964;-2.212;2022-09-09T02:54:49;100920.66;;;25.31;51.83
22481;BME280;11407;56.964;-2.212;2022-09-09T02:57:22;100916.31;;;25.36;51.81
22481;BME280;11407;56.964;-2.212;2022-09-09T02:59:49;100923.19;;;25.45;51.49
22481;BME280;11407;56.964;-2.212;2022-09-09T03:02:15;100911.13;;;25.48;51.12
22481;BME280;11407;56.964;-2.212;2022-09-09T03:04:40;100916.50;;;25.28;51.50
22481;BME280;11407;56.964;-2.212;2022-09-09T03:07:08;100919.88;;;25.43;51.32
22481;BME280;11407;56.964;-2.212;2022-09-09T03:09:35;100910.72;;;25.57;50.91
22481;BME280;11407;56.964;-2.212;2022-09-09T03:12:00;100919.03;;;25.56;51.60
22481;BME280;11407;56.964;-2.212;2022-09-09T03:14:26;100922.75;;;25.29;51.74
22481;BME280;11407;56.964;-2.212;2022-09-09T03:16:52;100931.47;;;25.31;52.23
22481;BME280;11407;56.964;-2.212;2022-09-09T03:19:18;100919.00;;;25.17;52.64
22481;BME280;11407;56.964;-2.212;2022-09-09T03:21:45;100925.66;;;25.34;51.73
22481;BME280;11407;56.964;-2.212;2022-09-09T03:24:11;100926.50;;;25.47;52.06
22481;BME280;11407;56.964;-2.212;2022-09-09T03:26:36;100921.09;;;25.54;51.55
22481;BME280;11407;56.964;-2.212;2022-09-09T03:29:03;100935.03;;;25.44;51.39
22481;BME280;11407;56.964;-2.212;2022-09-09T03:31:32;100930.22;;;25.27;51.58
22481;BME280;11407;56.964;-2.212;2022-09-09T03:33:58;100944.13;;;25.24;51.28
22481;BME280;11407;56.964;-2.212;2022-09-09T03:36:25;100945.81;;;25.44;51.58
22481;BME280;11407;56.964;-2.212;2022-09-09T03:38:51;100951.16;;;25.12;52.21
22481;BME280;11407;56.964;-2.212;2022-09-09T03:41:17;100945.97;;;25.23;52.10
22481;BME280;11407;56.964;-2.212;2022-09-09T03:43:43;100951.56;;;25.15;51.96
22481;BME280;11407;56.964;-2.212;2022-09-09T03:46:09;100945.94;;;25.10;52.65
22481;BME280;11407;56.964;-2.212;2022-09-09T03:48:35;100954.09;;;25.17;52.26
22481;BME280;11407;56.964;-2.212;2022-09-09T03:51:01;100956.75;;;25.10;52.70
22481;BME280;11407;56.964;-2.212;2022-09-09T03:53:27;100940.16;;;25.20;52.20
22481;BME280;11407;56.964;-2.212;2022-09-09T03:55:54;100946.59;;;25.19;51.81
22481;BME280;11407;56.964;-2.212;2022-09-09T03:58:22;100946.63;;;25.45;51.99
22481;BME280;11407;56.964;-2.212;2022-09-09T04:00:57;100949.53;;;25.37;52.09
22481;BME280;11407;56.964;-2.212;2022-09-09T04:03:23;100952.44;;;25.22;52.66
22481;BME280;11407;56.964;-2.212;2022-09-09T04:05:50;100956.41;;;25.39;51.59
22481;BME280;11407;56.964;-2.212;2022-09-09T04:08:16;100955.97;;;25.29;52.28
22481;BME280;11407;56.964;-2.212;2022-09-09T04:10:45;100952.03;;;25.32;51.86
22481;BME280;11407;56.964;-2.212;2022-09-09T04:13:12;100954.28;;;25.22;51.61
22481;BME280;11407;56.964;-2.212;2022-09-09T04:15:38;100953.69;;;25.33;51.49
22481;BME280;11407;56.964;-2.212;2022-09-09T04:18:03;100948.91;;;25.28;51.83
22481;BME280;11407;56.964;-2.212;2022-09-09T04:20:28;100955.75;;;25.31;51.67
22481;BME280;11407;56.964;-2.212;2022-09-09T04:22:55;100954.53;;;25.27;51.76
22481;BME280;11407;56.964;-2.212;2022-09-09T04:25:20;100954.22;;;25.09;52.01
22481;BME280;11407;56.964;-2.212;2022-09-09T04:27:46;100953.81;;;25.05;52.61
22481;BME280;11407;56.964;-2.212;2022-09-09T04:30:12;100942.19;;;25.05;52.39
22481;BME280;11407;56.964;-2.212;2022-09-09T04:32:38;100956.97;;;25.15;51.89
22481;BME280;11407;56.964;-2.212;2022-09-09T04:35:03;100958.63;;;25.16;52.35
22481;BME280;11407;56.964;-2.212;2022-09-09T04:37:29;100959.25;;;25.12;51.53
22481;BME280;11407;56.964;-2.212;2022-09-09T04:39:55;100953.03;;;25.18;51.25
22481;BME280;11407;56.964;-2.212;2022-09-09T04:42:21;100965.06;;;25.15;51.92
22481;BME280;11407;56.964;-2.212;2022-09-09T04:44:46;100945.75;;;25.12;51.36
22481;BME280;11407;56.964;-2.212;2022-09-09T04:47:11;100946.31;;;25.01;52.37
22481;BME280;11407;56.964;-2.212;2022-09-09T04:49:37;100944.13;;;25.17;52.01
22481;BME280;11407;56.964;-2.212;2022-09-09T04:52:03;100944.94;;;25.18;51.94
22481;BME280;11407;56.964;-2.212;2022-09-09T04:54:29;100948.25;;;25.13;52.09
22481;BME280;11407;56.964;-2.212;2022-09-09T04:56:55;100963.31;;;24.95;52.60
22481;BME280;11407;56.964;-2.212;2022-09-09T04:59:21;100950.44;;;24.90;52.63
22481;BME280;11407;56.964;-2.212;2022-09-09T05:01:47;100967.28;;;24.99;51.93
22481;BME280;11407;56.964;-2.212;2022-09-09T05:04:13;100966.25;;;25.00;52.19
22481;BME280;11407;56.964;-2.212;2022-09-09T05:06:40;100946.81;;;25.24;51.28
22481;BME280;11407;56.964;-2.212;2022-09-09T05:09:05;100952.81;;;25.13;51.38
22481;BME280;11407;56.964;-2.212;2022-09-09T05:11:32;100961.84;;;24.86;52.79
22481;BME280;11407;56.964;-2.212;2022-09-09T05:14:01;100959.59;;;25.02;52.56
22481;BME280;11407;56.964;-2.212;2022-09-09T05:16:26;100972.69;;;25.05;51.75
22481;BME280;11407;56.964;-2.212;2022-09-09T05:18:52;100958.44;;;25.11;51.90
22481;BME280;11407;56.964;-2.212;2022-09-09T05:21:19;100958.22;;;25.13;51.96
22481;BME280;11407;56.964;-2.212;2022-09-09T05:23:45;100965.94;;;25.29;51.15
22481;BME280;11407;56.964;-2.212;2022-09-09T05:26:13;100961.28;;;25.10;52.27
22481;BME280;11407;56.964;-2.212;2022-09-09T05:28:39;100970.81;;;25.06;52.45
22481;BME280;11407;56.964;-2.212;2022-09-09T05:31:07;100962.81;;;25.32;51.47
22481;BME280;11407;56.964;-2.212;2022-09-09T05:33:43;100970.28;;;25.30;51.66
22481;BME280;11407;56.964;-2.212;2022-09-09T05:36:12;100977.53;;;25.23;51.46
22481;BME280;11407;56.964;-2.212;2022-09-09T05:38:39;100980.56;;;25.07;51.98
22481;BME280;11407;56.964;-2.212;2022-09-09T05:41:05;100988.88;;;25.05;51.77
22481;BME280;11407;56.964;-2.212;2022-09-09T05:43:31;100979.34;;;25.09;52.10
22481;BME280;11407;56.964;-2.212;2022-09-09T05:48:35;100989.09;;;25.04;52.22
22481;BME280;11407;56.964;-2.212;2022-09-09T05:51:01;100987.09;;;25.25;51.54
22481;BME280;11407;56.964;-2.212;2022-09-09T05:53:28;100987.00;;;25.06;52.30
22481;BME280;11407;56.964;-2.212;2022-09-09T05:56:02;100988.16;;;25.37;51.99
22481;BME280;11407;56.964;-2.212;2022-09-09T05:58:29;101000.78;;;25.17;51.86
22481;BME280;11407;56.964;-2.212;2022-09-09T06:01:09;100992.50;;;25.32;51.99
22481;BME280;11407;56.964;-2.212;2022-09-09T06:03:39;100998.91;;;25.18;52.54
22481;BME280;11407;56.964;-2.212;2022-09-09T06:06:08;100999.13;;;25.23;52.41
22481;BME280;11407;56.964;-2.212;2022-09-09T06:08:35;100994.16;;;25.33;51.59
22481;BME280;11407;56.964;-2.212;2022-09-09T06:11:11;100990.22;;;25.42;51.86
22481;BME280;11407;56.964;-2.212;2022-09-09T06:13:37;100992.53;;;25.38;51.62
22481;BME280;11407;56.964;-2.212;2022-09-09T06:16:05;101004.53;;;25.23;51.95
22481;BME280;11407;56.964;-2.212;2022-09-09T06:18:32;101011.88;;;25.01;52.35
22481;BME280;11407;56.964;-2.212;2022-09-09T06:21:02;101001.19;;;25.14;52.48
22481;BME280;11407;56.964;-2.212;2022-09-09T06:23:32;101005.16;;;25.18;52.20
22481;BME280;11407;56.964;-2.212;2022-09-09T06:26:08;101022.13;;;25.12;52.48
22481;BME280;11407;56.964;-2.212;2022-09-09T06:28:35;101025.09;;;25.24;52.56
22481;BME280;11407;56.964;-2.212;2022-09-09T06:31:04;101027.38;;;25.27;52.32
22481;BME280;11407;56.964;-2.212;2022-09-09T06:33:34;101039.22;;;25.26;52.01
22481;BME280;11407;56.964;-2.212;2022-09-09T06:36:00;101026.56;;;25.33;51.98
22481;BME280;11407;56.964;-2.212;2022-09-09T06:38:26;101029.41;;;25.12;52.21
22481;BME280;11407;56.964;-2.212;2022-09-09T06:40:57;101019.50;;;25.32;51.93
22481;BME280;11407;56.964;-2.212;2022-09-09T06:43:27;101024.31;;;25.56;51.08
22481;BME280;11407;56.964;-2.212;2022-09-09T06:46:08;101041.06;;;25.25;51.71
22481;BME280;11407;56.964;-2.212;2022-09-09T06:48:34;101036.91;;;25.23;52.25
22481;BME280;11407;56.964;-2.212;2022-09-09T06:51:05;101025.28;;;25.16;52.27
22481;BME280;11407;56.964;-2.212;2022-09-09T06:53:35;101036.19;;;25.08;52.18
22481;BME280;11407;56.964;-2.212;2022-09-09T06:58:35;101045.06;;;25.36;52.40
22481;BME280;11407;56.964;-2.212;2022-09-09T07:01:07;101049.28;;;25.64;51.40
22481;BME280;11407;56.964;-2.212;2022-09-09T07:03:33;101052.34;;;25.48;51.72
22481;BME280;11407;56.964;-2.212;2022-09-09T07:05:59;101062.34;;;25.54;51.37
22481;BME280;11407;56.964;-2.212;2022-09-09T07:08:24;101067.31;;;25.63;51.73
22481;BME280;11407;56.964;-2.212;2022-09-09T07:10:51;101059.38;;;25.36;52.34
22481;BME280;11407;56.964;-2.212;2022-09-09T07:13:28;101065.41;;;25.45;51.93
22481;BME280;11407;56.964;-2.212;2022-09-09T07:15:54;101069.97;;;25.38;52.53
22481;BME280;11407;56.964;-2.212;2022-09-09T07:18:19;101076.03;;;25.46;51.96
22481;BME280;11407;56.964;-2.212;2022-09-09T07:20:55;101078.72;;;25.40;51.58
22481;BME280;11407;56.964;-2.212;2022-09-09T07:23:22;101088.44;;;25.28;51.66
22481;BME280;11407;56.964;-2.212;2022-09-09T07:25:47;101095.50;;;25.42;51.74
22481;BME280;11407;56.964;-2.212;2022-09-09T07:28:13;101093.28;;;25.45;51.85
22481;BME280;11407;56.964;-2.212;2022-09-09T07:30:39;101098.94;;;25.76;51.86
22481;BME280;11407;56.964;-2.212;2022-09-09T07:33:06;101091.06;;;25.74;51.17
22481;BME280;11407;56.964;-2.212;2022-09-09T07:35:31;101105.75;;;25.59;51.92
22481;BME280;11407;56.964;-2.212;2022-09-09T07:37:57;101099.41;;;25.92;51.47
22481;BME280;11407;56.964;-2.212;2022-09-09T07:40:24;101106.50;;;26.00;51.25
22481;BME280;11407;56.964;-2.212;2022-09-09T07:42:50;101113.31;;;25.83;51.85
22481;BME280;11407;56.964;-2.212;2022-09-09T07:45:15;101121.22;;;25.78;52.04
22481;BME280;11407;56.964;-2.212;2022-09-09T07:47:41;101117.28;;;25.87;51.30
22481;BME280;11407;56.964;-2.212;2022-09-09T07:50:09;101126.66;;;26.10;51.58
22481;BME280;11407;56.964;-2.212;2022-09-09T07:52:35;101126.88;;;26.02;51.44
22481;BME280;11407;56.964;-2.212;2022-09-09T07:55:01;101130.41;;;25.96;52.33
22481;BME280;11407;56.964;-2.212;2022-09-09T07:57:28;101132.28;;;26.02;51.91
22481;BME280;11407;56.964;-2.212;2022-09-09T07:59:56;101141.81;;;26.05;51.35
22481;BME280;11407;56.964;-2.212;2022-09-09T08:02:22;101136.00;;;26.08;50.55
22481;BME280;11407;56.964;-2.212;2022-09-09T08:04:48;101150.34;;;25.89;52.05
22481;BME280;11407;56.964;-2.212;2022-09-09T08:07:14;101147.03;;;26.00;52.17
22481;BME280;11407;56.964;-2.212;2022-09-09T08:09:39;101145.97;;;25.94;52.25
22481;BME280;11407;56.964;-2.212;2022-09-09T08:12:05;101149.75;;;26.13;50.93
22481;BME280;11407;56.964;-2.212;2022-09-09T08:14:34;101158.91;;;26.25;51.84
22481;BME280;11407;56.964;-2.212;2022-09-09T08:16:59;101153.31;;;26.33;51.52
22481;BME280;11407;56.964;-2.212;2022-09-09T08:19:24;101167.22;;;26.23;51.75
22481;BME280;11407;56.964;-2.212;2022-09-09T08:21:50;101158.69;;;26.20;50.72
22481;BME280;11407;56.964;-2.212;2022-09-09T08:24:16;101172.63;;;26.23;50.97
22481;BME280;11407;56.964;-2.212;2022-09-09T08:26:44;101164.97;;;26.46;50.89
22481;BME280;11407;56.964;-2.212;2022-09-09T08:29:11;101164.75;;;26.35;50.56
22481;BME280;11407;56.964;-2.212;2022-09-09T08:31:51;101172.91;;;26.67;50.17
22481;BME280;11407;56.964;-2.212;2022-09-09T08:34:20;101175.59;;;26.41;50.24
22481;BME280;11407;56.964;-2.212;2022-09-09T08:36:47;101170.59;;;26.57;49.68
22481;BME280;11407;56.964;-2.212;2022-09-09T08:39:15;101172.28;;;26.58;50.57
22481;BME280;11407;56.964;-2.212;2022-09-09T08:53:14;101196.16;;;26.87;48.85
22481;BME280;11407;56.964;-2.212;2022-09-09T08:58:20;101198.88;;;27.07;49.98
22481;BME280;11407;56.964;-2.212;2022-09-09T09:11:43;101214.69;;;26.84;49.94
22481;BME280;11407;56.964;-2.212;2022-09-09T09:14:17;101222.19;;;27.14;49.15
22481;BME280;11407;56.964;-2.212;2022-09-09T09:19:29;101235.53;;;26.90;48.31
22481;BME280;11407;56.964;-2.212;2022-09-09T09:22:03;101239.69;;;26.92;48.69
22481;BME280;11407;56.964;-2.212;2022-09-09T09:24:45;101236.75;;;26.87;48.80
22481;BME280;11407;56.964;-2.212;2022-09-09T09:27:16;101243.84;;;26.95;48.40
22481;BME280;11407;56.964;-2.212;2022-09-09T09:29:44;101255.69;;;26.87;49.39
22481;BME280;11407;56.964;-2.212;2022-09-09T09:32:17;101247.19;;;26.97;48.06
22481;BME280;11407;56.964;-2.212;2022-09-09T09:34:51;101250.28;;;27.00;48.07
22481;BME280;11407;56.964;-2.212;2022-09-09T09:37:32;101244.69;;;26.89;49.41
22481;BME280;11407;56.964;-2.212;2022-09-09T09:42:51;101267.41;;;27.07;46.74
22481;BME280;11407;56.964;-2.212;2022-09-09T09:45:33;101261.94;;;27.33;48.74
22481;BME280;11407;56.964;-2.212;2022-09-09T09:48:02;101265.94;;;27.11;47.82
22481;BME280;11407;56.964;-2.212;2022-09-09T09:50:29;101264.06;;;27.12;48.55
22481;BME280;11407;56.964;-2.212;2022-09-09T09:52:56;101279.44;;;26.92;46.02
22481;BME280;11407;56.964;-2.212;2022-09-09T09:55:22;101281.72;;;26.88;49.69
22481;BME280;11407;56.964;-2.212;2022-09-09T09:57:49;101276.13;;;27.16;49.32
22481;BME280;11407;56.964;-2.212;2022-09-09T10:00:18;101271.97;;;27.07;47.26
22481;BME280;11407;56.964;-2.212;2022-09-09T10:02:45;101274.25;;;27.36;48.60
22481;BME280;11407;56.964;-2.212;2022-09-09T10:05:21;101282.78;;;27.33;47.58
22481;BME280;11407;56.964;-2.212;2022-09-09T10:08:20;101276.75;;;27.05;46.50
22481;BME280;11407;56.964;-2.212;2022-09-09T10:16:05;101287.97;;;27.34;48.04
22481;BME280;11407;56.964;-2.212;2022-09-09T10:21:32;101288.97;;;27.59;46.39
22481;BME280;11407;56.964;-2.212;2022-09-09T10:32:53;101282.53;;;27.53;46.28
22481;BME280;11407;56.964;-2.212;2022-09-09T10:46:26;101291.91;;;27.70;45.13
22481;BME280;11407;56.964;-2.212;2022-09-09T10:52:18;101291.88;;;27.77;45.42
22481;BME280;11407;56.964;-2.212;2022-09-09T10:59:50;101302.28;;;27.80;44.92
22481;BME280;11407;56.964;-2.212;2022-09-09T11:02:29;101310.66;;;28.22;46.35
22481;BME280;11407;56.964;-2.212;2022-09-09T11:04:59;101311.31;;;28.24;45.83
22481;BME280;11407;56.964;-2.212;2022-09-09T11:10:03;101331.16;;;28.12;47.48
22481;BME280;11407;56.964;-2.212;2022-09-09T11:12:34;101313.38;;;28.16;43.51
22481;BME280;11407;56.964;-2.212;2022-09-09T11:15:14;101324.44;;;28.64;45.16
22481;BME280;11407;56.964;-2.212;2022-09-09T11:17:49;101325.84;;;28.36;44.48
22481;BME280;11407;56.964;-2.212;2022-09-09T11:20:16;101324.06;;;28.11;44.13
22481;BME280;11407;56.964;-2.212;2022-09-09T11:22:50;101315.50;;;28.07;46.14
22481;BME280;11407;56.964;-2.212;2022-09-09T11:25:19;101317.44;;;27.94;45.31
22481;BME280;11407;56.964;-2.212;2022-09-09T11:30:24;101315.75;;;27.99;45.39
22481;BME280;11407;56.964;-2.212;2022-09-09T11:38:39;101328.16;;;27.76;42.67
22481;BME280;11407;56.964;-2.212;2022-09-09T11:41:09;101335.88;;;27.66;43.66
22481;BME280;11407;56.964;-2.212;2022-09-09T11:46:13;101322.34;;;27.40;45.58
22481;BME280;11407;56.964;-2.212;2022-09-09T11:48:45;101335.03;;;27.59;44.96
22481;BME280;11407;56.964;-2.212;2022-09-09T11:51:32;101352.53;;;27.63;43.05
22481;BME280;11407;56.964;-2.212;2022-09-09T11:54:00;101320.03;;;27.44;45.15
22481;BME280;11407;56.964;-2.212;2022-09-09T11:56:32;101325.88;;;27.41;44.57
22481;BME280;11407;56.964;-2.212;2022-09-09T11:59:04;101343.41;;;27.32;44.94
22481;BME280;11407;56.964;-2.212;2022-09-09T12:06:32;101350.88;;;27.43;45.38
22481;BME280;11407;56.964;-2.212;2022-09-09T12:09:12;101341.72;;;27.37;44.91
22481;BME280;11407;56.964;-2.212;2022-09-09T12:11:42;101346.31;;;27.24;45.85
22481;BME280;11407;56.964;-2.212;2022-09-09T12:14:19;101351.28;;;27.01;45.67
22481;BME280;11407;56.964;-2.212;2022-09-09T12:16:46;101342.72;;;26.91;46.88
22481;BME280;11407;56.964;-2.212;2022-09-09T12:24:10;101352.97;;;27.15;45.03
22481;BME280;11407;56.964;-2.212;2022-09-09T12:29:24;101352.16;;;27.27;45.40
22481;BME280;11407;56.964;-2.212;2022-09-09T12:32:15;101351.53;;;27.32;45.12
22481;BME280;11407;56.964;-2.212;2022-09-09T12:38:12;101343.41;;;27.64;44.34
22481;BME280;11407;56.964;-2.212;2022-09-09T12:42:45;101381.09;;;27.78;44.08
22481;BME280;11407;56.964;-2.212;2022-09-09T12:45:17;101353.75;;;27.80;43.05
22481;BME280;11407;56.964;-2.212;2022-09-09T12:48:03;101358.78;;;27.76;40.75
22481;BME280;11407;56.964;-2.212;2022-09-09T12:50:34;101372.50;;;27.94;44.08
22481;BME280;11407;56.964;-2.212;2022-09-09T12:53:05;101362.88;;;27.98;44.13
22481;BME280;11407;56.964;-2.212;2022-09-09T12:55:36;101355.09;;;28.15;43.91
22481;BME280;11407;56.964;-2.212;2022-09-09T12:58:04;101366.94;;;27.63;43.26
22481;BME280;11407;56.964;-2.212;2022-09-09T13:00:31;101366.09;;;27.69;43.00
22481;BME280;11407;56.964;-2.212;2022-09-09T13:02:59;101388.53;;;28.02;42.07
22481;BME280;11407;56.964;-2.212;2022-09-09T13:05:34;101368.56;;;27.84;44.08
22481;BME280;11407;56.964;-2.212;2022-09-09T13:08:06;101369.63;;;27.76;43.61
22481;BME280;11407;56.964;-2.212;2022-09-09T13:10:36;101362.50;;;27.88;40.04
22481;BME280;11407;56.964;-2.212;2022-09-09T13:13:05;101371.91;;;27.79;43.27
22481;BME280;11407;56.964;-2.212;2022-09-09T13:15:38;101375.91;;;27.64;41.91
22481;BME280;11407;56.964;-2.212;2022-09-09T13:18:06;101377.13;;;27.74;43.54
22481;BME280;11407;56.964;-2.212;2022-09-09T13:20:36;101380.66;;;27.23;41.95
22481;BME280;11407;56.964;-2.212;2022-09-09T13:23:02;101383.38;;;27.43;41.07
22481;BME280;11407;56.964;-2.212;2022-09-09T13:25:28;101374.22;;;27.69;42.86
22481;BME280;11407;56.964;-2.212;2022-09-09T13:28:04;101387.56;;;27.64;42.55
22481;BME280;11407;56.964;-2.212;2022-09-09T13:30:32;101377.56;;;27.52;40.47
22481;BME280;11407;56.964;-2.212;2022-09-09T13:35:27;101380.06;;;27.73;42.88
22481;BME280;11407;56.964;-2.212;2022-09-09T13:37:53;101381.31;;;27.45;42.08
22481;BME280;11407;56.964;-2.212;2022-09-09T13:40:22;101385.25;;;27.55;41.78
22481;BME280;11407;56.964;-2.212;2022-09-09T13:42:53;101390.06;;;27.21;39.93
22481;BME280;11407;56.964;-2.212;2022-09-09T13:45:24;101380.03;;;27.60;42.46
22481;BME280;11407;56.964;-2.212;2022-09-09T13:47:53;101387.56;;;27.64;42.57
22481;BME280;11407;56.964;-2.212;2022-09-09T13:50:30;101396.91;;;27.62;42.25
22481;BME280;11407;56.964;-2.212;2022-09-09T13:52:58;101396.31;;;27.66;42.84
22481;BME280;11407;56.964;-2.212;2022-09-09T13:55:25;101378.59;;;27.70;42.66
22481;BME280;11407;56.964;-2.212;2022-09-09T14:00:17;101389.22;;;27.33;41.91
22481;BME280;11407;56.964;-2.212;2022-09-09T14:02:42;101392.56;;;27.48;42.77
22481;BME280;11407;56.964;-2.212;2022-09-09T14:05:09;101385.69;;;27.33;42.39
22481;BME280;11407;56.964;-2.212;2022-09-09T14:07:38;101387.13;;;27.09;40.08
22481;BME280;11407;56.964;-2.212;2022-09-09T14:10:04;101390.69;;;27.23;40.92
22481;BME280;11407;56.964;-2.212;2022-09-09T14:12:30;101389.66;;;27.37;42.92
22481;BME280;11407;56.964;-2.212;2022-09-09T14:14:55;101378.19;;;27.15;42.00
22481;BME280;11407;56.964;-2.212;2022-09-09T14:17:21;101394.66;;;27.14;43.03
22481;BME280;11407;56.964;-2.212;2022-09-09T14:19:47;101377.75;;;27.12;41.75
22481;BME280;11407;56.964;-2.212;2022-09-09T14:22:13;101388.59;;;27.18;40.15
22481;BME280;11407;56.964;-2.212;2022-09-09T14:24:39;101392.34;;;27.17;42.03
22481;BME280;11407;56.964;-2.212;2022-09-09T14:27:04;101400.44;;;27.04;42.05
22481;BME280;11407;56.964;-2.212;2022-09-09T14:29:29;101384.41;;;27.16;41.60
22481;BME280;11407;56.964;-2.212;2022-09-09T14:31:55;101382.09;;;26.93;38.61
22481;BME280;11407;56.964;-2.212;2022-09-09T14:34:20;101386.88;;;26.98;40.77
22481;BME280;11407;56.964;-2.212;2022-09-09T14:36:46;101387.47;;;26.87;42.60
22481;BME280;11407;56.964;-2.212;2022-09-09T14:39:12;101397.03;;;26.83;41.59
22481;BME280;11407;56.964;-2.212;2022-09-09T14:41:37;101391.44;;;26.97;40.88
22481;BME280;11407;56.964;-2.212;2022-09-09T14:44:03;101390.03;;;27.14;41.95
22481;BME280;11407;56.964;-2.212;2022-09-09T14:46:28;101386.28;;;27.09;40.66
22481;BME280;11407;56.964;-2.212;2022-09-09T14:48:54;101389.34;;;26.73;41.84
22481;BME280;11407;56.964;-2.212;2022-09-09T14:51:22;101386.22;;;26.83;42.55
22481;BME280;11407;56.964;-2.212;2022-09-09T14:53:53;101382.22;;;26.59;41.89
22481;BME280;11407;56.964;-2.212;2022-09-09T14:56:21;101397.66;;;26.78;41.46
22481;BME280;11407;56.964;-2.212;2022-09-09T14:58:48;101387.44;;;26.74;42.46
22481;BME280;11407;56.964;-2.212;2022-09-09T15:01:16;101385.59;;;26.87;40.83
22481;BME280;11407;56.964;-2.212;2022-09-09T15:03:48;101391.84;;;26.88;41.68
22481;BME280;11407;56.964;-2.212;2022-09-09T15:06:14;101388.28;;;26.87;40.79
22481;BME280;11407;56.964;-2.212;2022-09-09T15:08:42;101379.56;;;26.92;41.57
22481;BME280;11407;56.964;-2.212;2022-09-09T15:11:09;101386.41;;;26.75;41.74
22481;BME280;11407;56.964;-2.212;2022-09-09T15:13:36;101391.63;;;26.89;41.89